Time;durP1;ratioP1;P1;durP2;ratioP2;P2;SDS_P1;SDS_P2;PMS_P1;PMS_P2;Temp;Humidity;BMP_temperature;BMP_pressure;BME280_temperature;BME280_humidity;BME280_pressure;Samples;Min_cycle;Max_cycle;Signal;HPM_P1;HPM_P2
2021/09/09 00:01:07;;;;;;;12.43;7.70;;;;;;;10.89;77.62;98367.45;1705359;83;21065;-79
2021/09/09 00:03:36;;;;;;;9.65;7.00;;;;;;;10.76;78.03;98360.23;1716975;83;20969;-80
2021/09/09 00:06:03;;;;;;;11.10;7.15;;;;;;;10.69;77.51;98367.48;1685554;85;21457;-79
2021/09/09 00:08:30;;;;;;;8.55;6.72;;;;;;;10.66;77.21;98368.88;1690075;85;21013;-79
2021/09/09 00:10:57;;;;;;;10.88;7.65;;;;;;;10.64;77.08;98369.81;1701862;83;20985;-79
2021/09/09 00:13:25;;;;;;;11.88;7.55;;;;;;;10.59;77.00;98375.69;1693250;84;21030;-79
2021/09/09 00:15:53;;;;;;;10.75;7.20;;;;;;;10.49;76.76;98375.02;1689984;84;21475;-80
2021/09/09 00:18:21;;;;;;;12.80;7.35;;;;;;;10.40;77.78;98379.60;1693318;85;21004;-80
2021/09/09 00:20:47;;;;;;;13.55;7.55;;;;;;;10.38;77.17;98376.57;1693578;85;20990;-79
2021/09/09 00:23:15;;;;;;;11.78;7.33;;;;;;;10.30;77.15;98379.40;1679121;84;21079;-80
2021/09/09 00:25:43;;;;;;;11.35;7.80;;;;;;;10.23;77.24;98370.71;1676047;86;20982;-80
2021/09/09 00:28:10;;;;;;;12.47;8.45;;;;;;;10.19;77.39;98364.17;1699167;84;21060;-80
2021/09/09 00:30:37;;;;;;;18.07;8.43;;;;;;;10.13;77.48;98367.84;1675720;85;21007;-80
2021/09/09 00:33:06;;;;;;;12.68;8.35;;;;;;;10.08;78.76;98364.43;1691830;85;21089;-80
2021/09/09 00:35:33;;;;;;;13.25;8.68;;;;;;;10.04;79.17;98365.80;1689296;85;20954;-80
2021/09/09 00:38:01;;;;;;;11.38;7.80;;;;;;;10.03;78.65;98365.84;1690633;85;21012;-80
2021/09/09 00:40:29;;;;;;;13.78;7.60;;;;;;;10.01;78.10;98371.16;1694595;85;21011;-80
2021/09/09 00:42:56;;;;;;;12.47;7.97;;;;;;;9.97;78.16;98367.30;1694411;85;21075;-79
2021/09/09 00:45:23;;;;;;;15.25;9.10;;;;;;;9.93;79.01;98357.67;1694663;85;21035;-80
2021/09/09 00:47:49;;;;;;;11.57;8.40;;;;;;;9.88;79.56;98359.95;1694408;85;21000;-79
2021/09/09 00:50:16;;;;;;;11.10;8.08;;;;;;;9.86;79.50;98359.12;1694542;85;21437;-80
2021/09/09 00:52:50;;;;;;;12.63;8.43;;;;;;;9.88;79.40;98358.63;1694474;85;21026;-80
2021/09/09 00:55:18;;;;;;;12.93;7.72;;;;;;;9.90;80.24;98359.93;1694714;85;21056;-81
2021/09/09 00:57:46;;;;;;;11.95;7.75;;;;;;;9.89;81.17;98365.66;1694423;84;20984;-80
2021/09/09 01:00:14;;;;;;;12.53;7.62;;;;;;;9.92;81.13;98362.08;1694662;85;21012;-80
2021/09/09 01:02:41;;;;;;;14.70;7.80;;;;;;;9.94;80.81;98362.94;1694388;84;21498;-80
2021/09/09 01:05:10;;;;;;;11.38;7.33;;;;;;;9.94;80.72;98358.97;1694756;84;20998;-80
2021/09/09 01:07:36;;;;;;;12.58;7.90;;;;;;;9.98;80.21;98370.36;1694321;85;21011;-80
2021/09/09 01:10:04;;;;;;;12.60;7.55;;;;;;;9.99;79.91;98372.09;1694619;85;21393;-80
2021/09/09 01:12:30;;;;;;;11.65;6.90;;;;;;;10.00;80.02;98376.04;1690493;83;21105;-80
2021/09/09 01:14:56;;;;;;;11.08;7.12;;;;;;;10.02;80.30;98373.37;1694042;85;21024;-80
2021/09/09 01:17:23;;;;;;;11.28;7.17;;;;;;;10.04;80.81;98376.84;1686205;84;21105;-80
2021/09/09 01:19:49;;;;;;;11.88;7.08;;;;;;;10.10;80.56;98377.17;1684984;85;21029;-80
2021/09/09 01:22:16;;;;;;;11.43;6.80;;;;;;;10.12;80.30;98374.02;1685006;85;21446;-80
2021/09/09 01:24:42;;;;;;;11.20;7.42;;;;;;;10.12;80.42;98378.88;1684749;85;20994;-80
2021/09/09 01:27:09;;;;;;;9.65;6.67;;;;;;;10.11;80.16;98378.47;1684917;85;21045;-80
2021/09/09 01:29:39;;;;;;;9.48;6.75;;;;;;;10.09;80.25;98379.41;1663638;86;21058;-80
2021/09/09 01:32:08;;;;;;;11.85;7.03;;;;;;;10.04;80.17;98382.13;1663322;86;21133;-80
2021/09/09 01:34:36;;;;;;;12.45;7.05;;;;;;;9.98;80.09;98369.92;1663529;85;21424;-80
2021/09/09 01:37:03;;;;;;;10.20;6.83;;;;;;;9.95;79.88;98367.77;1663392;85;21088;-80
2021/09/09 01:39:30;;;;;;;13.45;8.30;;;;;;;9.88;79.96;98369.22;1663510;85;20989;-80
2021/09/09 01:41:59;;;;;;;11.53;6.90;;;;;;;9.86;79.75;98364.86;1663576;85;21040;-80
2021/09/09 01:44:29;;;;;;;11.53;7.28;;;;;;;9.77;79.75;98357.52;1663477;85;21060;-79
2021/09/09 01:46:57;;;;;;;13.95;7.45;;;;;;;9.73;79.82;98370.86;1663448;85;21110;-80
2021/09/09 01:49:24;;;;;;;12.25;7.70;;;;;;;9.69;80.42;98367.41;1665668;85;21002;-80
2021/09/09 01:51:50;;;;;;;10.82;7.45;;;;;;;9.66;79.50;98366.14;1664831;84;21016;-80
2021/09/09 01:54:17;;;;;;;11.22;7.35;;;;;;;9.61;79.98;98363.60;1663486;86;21445;-80
2021/09/09 01:56:44;;;;;;;12.43;7.92;;;;;;;9.60;79.72;98363.16;1684340;85;20996;-80
2021/09/09 01:59:11;;;;;;;13.98;7.90;;;;;;;9.60;79.34;98367.59;1684691;85;21111;-79
2021/09/09 02:01:38;;;;;;;17.20;7.95;;;;;;;9.56;79.04;98361.94;1684695;85;21000;-79
2021/09/09 02:04:04;;;;;;;12.03;7.42;;;;;;;9.51;80.84;98368.66;1692110;84;21415;-79
2021/09/09 02:06:36;;;;;;;11.53;7.60;;;;;;;9.42;81.90;98360.42;1684347;85;21009;-79
2021/09/09 02:09:03;;;;;;;10.85;6.97;;;;;;;9.36;81.37;98369.36;1685152;85;21006;-80
2021/09/09 02:11:30;;;;;;;13.83;7.20;;;;;;;9.30;80.54;98363.31;1685331;84;21036;-80
2021/09/09 02:13:57;;;;;;;17.70;7.62;;;;;;;9.27;83.19;98364.68;1677688;84;21007;-80
2021/09/09 02:16:24;;;;;;;13.30;7.67;;;;;;;9.24;80.43;98366.93;1682666;85;21516;-80
2021/09/09 02:18:51;;;;;;;11.70;7.33;;;;;;;9.18;82.69;98365.26;1680704;84;21066;-80
2021/09/09 02:21:17;;;;;;;13.15;7.45;;;;;;;9.11;81.56;98371.10;1672790;85;21497;-81
2021/09/09 02:23:44;;;;;;;12.45;7.65;;;;;;;9.07;81.79;98364.59;1680353;84;21094;-81
2021/09/09 02:26:10;;;;;;;9.45;6.33;;;;;;;9.07;81.59;98361.50;1684564;84;21023;-81
2021/09/09 02:28:37;;;;;;;9.90;7.00;;;;;;;9.05;81.27;98356.67;1687625;84;21029;-81
2021/09/09 02:31:03;;;;;;;12.18;7.80;;;;;;;9.04;81.94;98362.87;1685255;84;20962;-81
2021/09/09 02:33:30;;;;;;;8.70;6.85;;;;;;;9.03;81.52;98361.56;1687629;84;21024;-81
2021/09/09 02:35:56;;;;;;;12.15;7.50;;;;;;;9.00;81.47;98362.49;1680738;85;21459;-81
2021/09/09 02:38:23;;;;;;;11.03;6.30;;;;;;;8.97;81.34;98368.70;1680116;85;21042;-80
2021/09/09 02:40:49;;;;;;;12.58;6.72;;;;;;;8.94;82.26;98366.58;1679921;85;20994;-81
2021/09/09 02:43:16;;;;;;;12.13;7.62;;;;;;;8.89;80.51;98365.31;1680079;85;21045;-81
2021/09/09 02:45:43;;;;;;;11.57;7.75;;;;;;;8.90;81.19;98368.41;1680541;85;20970;-81
2021/09/09 02:48:09;;;;;;;11.57;7.55;;;;;;;8.89;82.00;98358.70;1681523;85;20993;-82
2021/09/09 02:50:36;;;;;;;13.30;8.05;;;;;;;8.83;80.62;98361.02;1681506;85;21498;-81
2021/09/09 02:53:03;;;;;;;11.40;7.50;;;;;;;8.78;80.62;98365.52;1684755;84;21395;-81
2021/09/09 02:55:30;;;;;;;10.30;7.58;;;;;;;8.74;80.73;98365.57;1692232;84;20954;-81
2021/09/09 02:57:56;;;;;;;11.68;8.00;;;;;;;8.71;80.67;98362.09;1679541;84;21452;-81
2021/09/09 03:00:23;;;;;;;10.55;7.33;;;;;;;8.74;81.21;98362.92;1667999;85;21003;-81
2021/09/09 03:02:49;;;;;;;13.25;7.10;;;;;;;8.77;81.10;98365.09;1667893;86;20999;-80
2021/09/09 03:05:16;;;;;;;10.43;7.03;;;;;;;8.78;80.95;98365.52;1679207;85;21037;-81
2021/09/09 03:07:42;;;;;;;10.98;7.17;;;;;;;8.78;81.22;98361.55;1681645;85;20990;-81
2021/09/09 03:10:10;;;;;;;11.38;7.30;;;;;;;8.79;81.29;98361.08;1681572;85;21029;-81
2021/09/09 03:12:37;;;;;;;10.75;7.08;;;;;;;8.76;81.58;98360.69;1681486;85;21392;-81
2021/09/09 03:15:06;;;;;;;9.13;6.53;;;;;;;8.74;82.17;98365.57;1672136;84;21005;-80
2021/09/09 03:17:33;;;;;;;12.47;6.45;;;;;;;8.70;82.65;98359.03;1670572;85;21458;-81
2021/09/09 03:19:59;;;;;;;9.85;6.47;;;;;;;8.74;82.59;98364.25;1666969;85;20990;-81
2021/09/09 03:22:26;;;;;;;11.65;7.08;;;;;;;8.73;82.56;98360.75;1666867;85;21487;-81
2021/09/09 03:24:53;;;;;;;11.30;7.05;;;;;;;8.73;82.56;98365.16;1675275;85;20982;-80
2021/09/09 03:27:19;;;;;;;10.43;7.15;;;;;;;8.75;82.69;98362.91;1667113;85;21018;-80
2021/09/09 03:29:46;;;;;;;9.58;6.92;;;;;;;8.82;82.88;98362.36;1666985;86;21081;-81
2021/09/09 03:32:13;;;;;;;13.38;7.62;;;;;;;8.83;83.07;98364.10;1679605;85;20946;-80
2021/09/09 03:34:40;;;;;;;13.50;7.10;;;;;;;8.86;82.75;98362.73;1681589;85;21014;-80
2021/09/09 03:37:06;;;;;;;11.08;6.53;;;;;;;8.89;82.34;98368.42;1681300;85;21037;-81
2021/09/09 03:39:32;;;;;;;9.65;6.92;;;;;;;8.81;81.81;98369.41;1681624;84;21434;-81
2021/09/09 03:41:59;;;;;;;12.00;7.62;;;;;;;8.78;82.03;98371.23;1681299;85;21045;-80
2021/09/09 03:44:25;;;;;;;12.80;7.12;;;;;;;8.76;81.70;98377.01;1681308;85;21074;-80
2021/09/09 03:46:52;;;;;;;13.58;6.95;;;;;;;8.71;81.55;98365.17;1681549;85;21025;-80
2021/09/09 03:49:18;;;;;;;11.80;7.15;;;;;;;8.63;81.59;98369.26;1681434;84;20966;-80
2021/09/09 03:51:45;;;;;;;13.48;7.35;;;;;;;8.54;81.48;98368.08;1681334;85;20989;-80
2021/09/09 03:54:11;;;;;;;11.55;7.45;;;;;;;8.47;81.66;98370.37;1681509;85;21012;-80
2021/09/09 03:56:38;;;;;;;10.35;7.37;;;;;;;8.39;81.65;98373.12;1681423;85;21454;-81
2021/09/09 03:59:04;;;;;;;12.25;8.23;;;;;;;8.36;81.78;98375.80;1681449;85;20980;-80
2021/09/09 04:01:31;;;;;;;13.18;7.42;;;;;;;8.34;82.15;98378.45;1681415;85;21507;-80
2021/09/09 04:03:57;;;;;;;10.90;7.67;;;;;;;8.32;82.64;98370.55;1681424;85;21005;-81
2021/09/09 04:06:24;;;;;;;12.82;8.18;;;;;;;8.35;82.35;98372.74;1681402;85;20998;-80
2021/09/09 04:08:51;;;;;;;11.18;7.10;;;;;;;8.36;82.10;98372.73;1681469;85;21438;-80
2021/09/09 04:11:17;;;;;;;12.93;8.45;;;;;;;8.34;82.31;98371.86;1681427;85;21069;-80
2021/09/09 04:13:44;;;;;;;14.33;8.23;;;;;;;8.39;83.13;98373.12;1681533;85;20974;-81
2021/09/09 04:16:10;;;;;;;12.23;7.58;;;;;;;8.37;81.96;98374.90;1681592;85;21028;-80
2021/09/09 04:18:37;;;;;;;12.70;8.60;;;;;;;8.30;82.97;98369.72;1663481;86;21096;-80
2021/09/09 04:21:03;;;;;;;13.50;7.37;;;;;;;8.29;82.05;98373.25;1656116;86;20936;-79
2021/09/09 04:23:30;;;;;;;13.18;8.33;;;;;;;8.27;82.12;98372.85;1638033;88;21016;-80
2021/09/09 04:25:56;;;;;;;12.50;7.72;;;;;;;8.28;82.01;98374.16;1631316;88;21442;-79
2021/09/09 04:28:27;;;;;;;12.80;8.18;;;;;;;8.27;83.02;98371.53;1638081;88;20996;-79
2021/09/09 04:30:53;;;;;;;12.07;8.23;;;;;;;8.29;82.58;98375.02;1635011;87;20982;-80
2021/09/09 04:33:20;;;;;;;15.23;7.75;;;;;;;8.31;82.32;98378.52;1649456;86;20966;-80
2021/09/09 04:35:46;;;;;;;12.63;7.58;;;;;;;8.30;83.71;98375.43;1663500;86;21056;-80
2021/09/09 04:38:13;;;;;;;12.55;7.62;;;;;;;8.29;82.68;98378.97;1651529;86;21433;-80
2021/09/09 04:40:40;;;;;;;12.78;8.05;;;;;;;8.31;82.50;98378.05;1637873;88;21021;-80
2021/09/09 04:43:07;;;;;;;11.65;7.85;;;;;;;8.36;82.58;98378.01;1632449;87;20985;-80
2021/09/09 04:45:33;;;;;;;14.58;7.50;;;;;;;8.40;82.39;98376.19;1642719;86;21060;-80
2021/09/09 04:48:00;;;;;;;13.38;7.60;;;;;;;8.40;82.65;98386.75;1637931;88;21052;-80
2021/09/09 04:50:27;;;;;;;13.03;7.60;;;;;;;8.42;83.35;98384.51;1638001;87;21024;-80
2021/09/09 04:52:54;;;;;;;14.20;8.58;;;;;;;8.48;83.84;98384.87;1631304;88;21496;-81
2021/09/09 04:55:20;;;;;;;14.60;7.40;;;;;;;8.53;85.83;98386.15;1630967;88;21012;-81
2021/09/09 04:57:47;;;;;;;13.20;6.87;;;;;;;8.58;83.70;98382.98;1608474;89;21006;-81
2021/09/09 05:00:14;;;;;;;12.28;6.90;;;;;;;8.64;84.20;98382.88;1617819;87;21030;-81
2021/09/09 05:02:40;;;;;;;13.20;7.85;;;;;;;8.71;83.86;98379.27;1608848;89;21022;-82
2021/09/09 05:05:11;;;;;;;14.23;7.42;;;;;;;8.82;83.70;98383.50;1608737;89;21499;-79
2021/09/09 05:07:38;;;;;;;10.43;6.85;;;;;;;8.84;83.97;98378.62;1608868;89;21002;-79
2021/09/09 05:10:07;;;;;;;13.30;7.47;;;;;;;8.94;84.59;98378.03;1606299;89;21105;-80
2021/09/09 05:12:33;;;;;;;11.12;6.85;;;;;;;9.03;83.66;98385.36;1608855;89;21030;-80
2021/09/09 05:15:00;;;;;;;10.95;7.67;;;;;;;9.14;83.76;98380.78;1637827;88;21057;-83
2021/09/09 05:17:28;;;;;;;15.72;7.83;;;;;;;9.24;83.63;98381.48;1643543;84;21048;-81
2021/09/09 05:19:54;;;;;;;14.50;7.45;;;;;;;9.30;83.44;98377.39;1661218;86;20990;-75
2021/09/09 05:22:21;;;;;;;12.23;7.67;;;;;;;9.40;83.38;98377.22;1654321;85;21080;-78
2021/09/09 05:24:47;;;;;;;10.88;7.65;;;;;;;9.49;83.31;98382.34;1645897;87;21069;-78
2021/09/09 05:27:13;;;;;;;12.28;7.42;;;;;;;9.59;83.17;98379.09;1646164;87;21162;-77
2021/09/09 05:29:40;;;;;;;12.30;6.80;;;;;;;9.65;82.99;98382.93;1646913;87;21066;-77
2021/09/09 05:32:07;;;;;;;10.80;7.85;;;;;;;9.72;82.87;98378.39;1647402;86;21032;-78
2021/09/09 05:34:34;;;;;;;12.68;6.97;;;;;;;9.80;82.50;98376.44;1647418;87;21009;-79
2021/09/09 05:37:00;;;;;;;13.25;7.00;;;;;;;9.86;82.22;98379.42;1647388;87;21010;-79
2021/09/09 05:39:27;;;;;;;10.48;7.42;;;;;;;9.90;81.98;98379.34;1647493;86;21514;-79
2021/09/09 05:41:53;;;;;;;9.93;6.33;;;;;;;9.97;81.97;98373.91;1651596;85;21053;-79
2021/09/09 05:44:20;;;;;;;10.25;6.72;;;;;;;10.02;81.79;98379.98;1661248;86;21349;-79
2021/09/09 05:46:46;;;;;;;11.33;7.05;;;;;;;10.04;81.53;98373.75;1661211;85;21029;-79
2021/09/09 05:49:13;;;;;;;11.40;6.92;;;;;;;10.07;81.58;98376.78;1682922;85;20985;-79
2021/09/09 05:51:39;;;;;;;14.87;7.35;;;;;;;10.08;80.91;98366.61;1682086;85;21474;-79
2021/09/09 05:54:06;;;;;;;11.18;7.28;;;;;;;10.11;81.27;98371.84;1682776;85;20968;-79
2021/09/09 05:56:32;;;;;;;11.35;7.08;;;;;;;10.17;80.94;98373.47;1682747;85;21040;-79
2021/09/09 05:59:00;;;;;;;9.98;7.47;;;;;;;10.22;81.21;98370.73;1682825;85;21020;-79
2021/09/09 06:01:30;;;;;;;87.30;46.80;;;;;;;10.27;81.39;98367.53;1682862;85;21064;-78
2021/09/09 06:04:00;;;;;;;10.98;7.60;;;;;;;10.32;80.49;98366.09;1682875;85;21000;-78
2021/09/09 06:06:26;;;;;;;10.45;6.83;;;;;;;10.37;80.44;98358.91;1682828;85;21443;-78
2021/09/09 06:08:53;;;;;;;11.73;7.53;;;;;;;10.42;80.51;98354.37;1682991;85;20997;-78
2021/09/09 06:11:19;;;;;;;12.33;7.20;;;;;;;10.48;80.07;98356.94;1663398;85;21056;-79
2021/09/09 06:13:46;;;;;;;13.20;7.87;;;;;;;10.56;79.90;98355.42;1661677;86;21510;-79
2021/09/09 06:16:13;;;;;;;11.18;7.87;;;;;;;10.63;79.80;98357.48;1661587;86;21137;-78
2021/09/09 06:18:39;;;;;;;11.88;8.35;;;;;;;10.68;80.29;98349.81;1662951;85;21337;-78
2021/09/09 06:21:05;;;;;;;11.95;7.50;;;;;;;10.78;79.78;98350.92;1663670;86;21142;-78
2021/09/09 06:23:32;;;;;;;11.83;8.00;;;;;;;10.86;79.59;98351.61;1663617;86;21009;-79
2021/09/09 06:25:59;;;;;;;19.57;9.30;;;;;;;10.95;79.44;98342.54;1663669;86;21475;-79
2021/09/09 06:28:26;;;;;;;13.30;7.90;;;;;;;11.05;79.37;98339.21;1644608;86;21132;-78
2021/09/09 06:30:52;;;;;;;14.25;7.58;;;;;;;11.17;79.11;98342.00;1663682;86;21025;-79
2021/09/09 06:33:19;;;;;;;11.18;7.53;;;;;;;11.29;79.02;98340.80;1663631;86;21092;-79
2021/09/09 06:35:45;;;;;;;13.80;7.65;;;;;;;11.38;79.31;98339.20;1663688;86;21005;-79
2021/09/09 06:38:13;;;;;;;12.78;8.18;;;;;;;11.46;78.82;98343.00;1663558;86;21017;-79
2021/09/09 06:40:40;;;;;;;15.53;7.80;;;;;;;11.57;78.52;98338.70;1663502;86;21502;-79
2021/09/09 06:43:07;;;;;;;13.05;8.33;;;;;;;11.67;78.15;98334.86;1640093;86;21421;-79
2021/09/09 06:45:35;;;;;;;15.23;8.70;;;;;;;11.80;78.12;98337.18;1631436;88;21055;-79
2021/09/09 06:48:03;;;;;;;13.93;8.93;;;;;;;11.91;77.85;98334.22;1631061;88;21473;-79
2021/09/09 06:50:29;;;;;;;19.80;12.65;;;;;;;12.00;77.64;98332.14;1650661;86;21009;-79
2021/09/09 06:52:56;;;;;;;16.12;10.68;;;;;;;12.11;77.41;98332.30;1663486;86;21025;-79
2021/09/09 06:55:22;;;;;;;15.70;10.23;;;;;;;12.23;77.29;98335.93;1663647;86;21143;-79
2021/09/09 06:57:49;;;;;;;14.90;10.10;;;;;;;12.36;76.98;98337.74;1663592;86;21047;-79
2021/09/09 07:00:16;;;;;;;18.25;10.75;;;;;;;12.48;76.44;98339.14;1663572;86;21032;-79
2021/09/09 07:02:42;;;;;;;17.15;10.72;;;;;;;12.61;76.33;98330.31;1663583;86;21017;-79
2021/09/09 07:05:11;;;;;;;19.02;10.85;;;;;;;12.74;75.91;98330.77;1663559;86;21486;-79
2021/09/09 07:07:40;;;;;;;17.37;12.13;;;;;;;12.85;75.76;98334.86;1663558;86;21037;-80
2021/09/09 07:10:09;;;;;;;21.40;12.13;;;;;;;12.97;75.49;98333.58;1663624;86;21060;-79
2021/09/09 07:12:36;;;;;;;21.23;12.43;;;;;;;13.10;74.74;98330.04;1645704;86;21027;-79
2021/09/09 07:15:05;;;;;;;25.23;12.95;;;;;;;13.22;74.76;98320.77;1638248;86;21065;-79
2021/09/09 07:17:32;;;;;;;22.60;13.15;;;;;;;13.33;74.09;98318.61;1646451;84;21466;-80
2021/09/09 07:19:58;;;;;;;22.37;14.07;;;;;;;13.44;73.30;98319.53;1681454;85;21016;-78
2021/09/09 07:22:24;;;;;;;22.32;12.98;;;;;;;13.56;73.94;98323.13;1681442;85;21048;-79
2021/09/09 07:24:51;;;;;;;19.67;12.45;;;;;;;13.65;73.20;98323.25;1681471;85;21023;-79
2021/09/09 07:27:17;;;;;;;23.92;13.98;;;;;;;13.74;73.47;98320.69;1681414;85;20981;-79
2021/09/09 07:29:44;;;;;;;24.52;14.38;;;;;;;13.83;73.30;98327.02;1681353;85;21004;-79
2021/09/09 07:32:10;;;;;;;36.53;22.40;;;;;;;13.92;72.70;98324.48;1681503;85;21462;-79
2021/09/09 07:34:36;;;;;;;46.73;28.92;;;;;;;14.02;71.48;98328.98;1681556;84;21121;-79
2021/09/09 07:37:03;;;;;;;28.02;17.23;;;;;;;14.11;72.18;98325.97;1681435;85;21028;-79
2021/09/09 07:39:30;;;;;;;29.27;15.72;;;;;;;14.22;71.99;98326.01;1681697;84;21020;-79
2021/09/09 07:41:56;;;;;;;27.05;15.28;;;;;;;14.30;71.92;98325.70;1681265;85;20982;-79
2021/09/09 07:44:23;;;;;;;25.82;14.68;;;;;;;14.39;71.69;98323.55;1681519;85;20994;-79
2021/09/09 07:46:49;;;;;;;22.52;12.95;;;;;;;14.49;70.90;98324.04;1681523;85;20982;-79
2021/09/09 07:49:16;;;;;;;22.27;12.93;;;;;;;14.59;71.35;98317.88;1681383;85;21029;-79
2021/09/09 07:51:44;;;;;;;26.12;12.85;;;;;;;14.69;71.30;98326.84;1681545;85;21420;-78
2021/09/09 07:54:10;;;;;;;23.60;12.40;;;;;;;14.78;71.01;98330.02;1681490;85;21005;-79
2021/09/09 07:56:37;;;;;;;25.05;11.75;;;;;;;14.92;70.55;98327.25;1677420;84;21002;-80
2021/09/09 07:59:04;;;;;;;22.42;12.10;;;;;;;15.02;70.98;98313.91;1689047;84;21063;-80
2021/09/09 08:01:30;;;;;;;20.23;10.82;;;;;;;15.16;70.20;98315.98;1662216;85;21029;-79
2021/09/09 08:03:57;;;;;;;16.42;11.22;;;;;;;15.27;70.34;98315.52;1667738;85;21067;-82
2021/09/09 08:06:24;;;;;;;16.17;10.40;;;;;;;15.40;70.44;98321.18;1686113;85;21331;-82
2021/09/09 08:08:52;;;;;;;20.40;11.50;;;;;;;15.54;69.74;98318.38;1686003;85;21448;-77
2021/09/09 08:11:18;;;;;;;20.10;12.23;;;;;;;15.68;69.86;98319.08;1683790;85;21039;-78
2021/09/09 08:13:45;;;;;;;18.07;11.65;;;;;;;15.79;69.63;98313.25;1680678;85;21470;-78
2021/09/09 08:16:12;;;;;;;18.10;11.83;;;;;;;15.88;69.34;98311.50;1680795;84;21007;-78
2021/09/09 08:18:38;;;;;;;21.23;12.05;;;;;;;16.02;68.72;98320.72;1670879;84;22158;-80
2021/09/09 08:21:05;;;;;;;24.65;13.15;;;;;;;16.11;68.61;98309.56;1649770;86;20986;-84
2021/09/09 08:23:32;;;;;;;22.15;12.47;;;;;;;16.23;68.24;98314.34;1651082;86;20997;-78
2021/09/09 08:25:59;;;;;;;18.73;12.73;;;;;;;16.34;68.14;98311.16;1644166;87;21510;-78
2021/09/09 08:28:27;;;;;;;24.00;13.78;;;;;;;16.45;68.41;98311.95;1647666;87;20956;-77
2021/09/09 08:30:55;;;;;;;25.97;13.32;;;;;;;16.55;68.18;98311.05;1648630;86;21027;-76
2021/09/09 08:33:26;;;;;;;21.80;12.70;;;;;;;16.65;68.07;98309.27;1662952;86;21026;-76
2021/09/09 08:35:53;;;;;;;21.02;13.05;;;;;;;16.76;67.32;98306.45;1663246;86;21011;-76
2021/09/09 08:38:19;;;;;;;25.82;12.90;;;;;;;16.88;67.80;98303.63;1662877;85;21003;-76
2021/09/09 08:40:53;;;;;;;19.95;11.57;;;;;;;16.97;67.55;98302.75;1652439;86;21159;-79
2021/09/09 08:43:20;;;;;;;22.22;11.75;;;;;;;17.06;67.50;98300.13;1651344;85;21041;-76
2021/09/09 08:45:52;;;;;;;19.10;11.57;;;;;;;17.15;67.18;98295.64;1651224;86;21544;-76
2021/09/09 08:48:20;;;;;;;24.20;13.10;;;;;;;17.24;67.35;98299.64;1651274;87;21033;-75
2021/09/09 08:50:51;;;;;;;26.48;12.90;;;;;;;17.36;67.10;98288.27;1632238;87;21494;-75
2021/09/09 08:53:20;;;;;;;22.65;12.55;;;;;;;17.46;67.10;98291.34;1650838;86;21061;-76
2021/09/09 08:55:49;;;;;;;18.37;11.35;;;;;;;17.57;67.27;98289.90;1651025;87;21491;-76
2021/09/09 08:58:19;;;;;;;15.98;10.98;;;;;;;17.65;67.10;98286.34;1650986;87;21073;-75
2021/09/09 09:01:15;;;;;;;15.38;10.00;;;;;;;17.73;66.74;98285.43;1650692;87;21069;-76
2021/09/09 09:03:46;;;;;;;19.02;10.45;;;;;;;17.79;66.79;98285.58;1651215;87;21533;-76
2021/09/09 09:06:29;;;;;;;16.93;9.75;;;;;;;17.91;66.54;98284.05;1650345;87;21076;-77
2021/09/09 09:09:10;;;;;;;16.55;9.33;;;;;;;18.01;66.16;98277.22;1645329;87;22210;-80
2021/09/09 09:11:41;;;;;;;15.32;8.55;;;;;;;18.10;66.19;98273.67;1649463;87;21033;-78
2021/09/09 09:14:11;;;;;;;15.58;9.45;;;;;;;18.21;65.45;98277.95;1650025;87;21042;-77
2021/09/09 09:16:50;;;;;;;14.73;8.23;;;;;;;18.36;65.48;98272.66;1650686;87;21431;-77
2021/09/09 09:19:24;;;;;;;11.80;7.83;;;;;;;18.45;64.56;98270.80;1671632;85;21079;-79
2021/09/09 09:21:57;;;;;;;;;;;;;;;18.55;64.65;98264.41;1683108;85;21050;-78
2021/09/09 09:24:32;;;;;;;16.05;7.40;;;;;;;18.64;63.83;98260.34;1680843;85;20349;-79
2021/09/09 09:27:22;;;;;;;14.73;7.00;;;;;;;18.77;63.84;98257.30;1680028;85;21059;-77
2021/09/09 09:30:08;;;;;;;28.62;19.95;;;;;;;18.85;63.60;98258.21;1691862;84;21028;-79
2021/09/09 09:32:38;;;;;;;15.18;8.78;;;;;;;18.94;62.80;98254.95;1653170;87;21013;-81
2021/09/09 09:35:13;;;;;;;11.35;7.30;;;;;;;19.04;62.61;98249.94;1676900;85;21010;-80
2021/09/09 09:38:07;;;;;;;9.40;5.97;;;;;;;19.16;62.41;98243.42;1678850;85;21467;-80
2021/09/09 09:40:43;;;;;;;13.18;5.97;;;;;;;19.30;62.24;98242.09;1679246;85;21022;-80
2021/09/09 09:43:12;;;;;;;9.35;6.37;;;;;;;19.42;61.53;98243.16;1659001;85;20991;-85
2021/09/09 09:45:50;;;;;;;13.00;6.85;;;;;;;19.51;60.58;98241.25;1680902;85;21012;-80
2021/09/09 09:48:29;;;;;;;8.95;5.65;;;;;;;19.58;59.63;98230.98;1680545;85;21059;-78
2021/09/09 09:50:59;;;;;;;8.53;5.25;;;;;;;19.65;58.63;98226.93;1680607;85;21092;-79
2021/09/09 09:53:25;;;;;;;11.93;4.80;;;;;;;19.76;58.17;98224.91;1663057;84;21030;-79
2021/09/09 09:55:52;;;;;;;8.65;6.12;;;;;;;19.87;58.47;98225.58;1681935;84;20993;-78
2021/09/09 09:58:18;;;;;;;8.55;5.12;;;;;;;19.96;57.84;98219.23;1690793;84;21092;-78
2021/09/09 10:00:45;;;;;;;12.50;5.83;;;;;;;20.07;57.60;98212.70;1690208;83;20968;-78
2021/09/09 10:03:15;;;;;;;10.70;5.40;;;;;;;20.18;56.27;98207.96;1680470;85;20978;-78
2021/09/09 10:05:43;;;;;;;10.25;6.58;;;;;;;20.32;55.94;98209.73;1680797;85;21023;-78
2021/09/09 10:08:10;;;;;;;9.23;5.62;;;;;;;20.48;55.62;98201.97;1689709;84;21432;-79
2021/09/09 10:10:36;;;;;;;7.55;4.70;;;;;;;20.64;53.23;98199.11;1689495;83;21001;-79
2021/09/09 10:13:04;;;;;;;10.50;5.72;;;;;;;20.77;54.49;98197.31;1680386;84;21009;-76
2021/09/09 10:15:33;;;;;;;10.93;5.08;;;;;;;20.88;53.62;98192.55;1678319;84;21002;-80
2021/09/09 10:17:59;;;;;;;10.23;6.17;;;;;;;21.02;53.30;98192.95;1679141;84;21010;-79
2021/09/09 10:20:41;;;;;;;7.97;4.97;;;;;;;21.18;52.38;98185.98;1687835;84;21092;-79
2021/09/09 10:23:15;;;;;;;10.15;6.40;;;;;;;21.31;52.14;98194.09;1707186;83;21447;-79
2021/09/09 10:25:49;;;;;;;10.20;6.15;;;;;;;21.46;51.86;98191.24;1707266;84;21033;-80
2021/09/09 10:28:41;;;;;;;;;;;;;;;21.56;51.80;98191.47;1710000;83;20983;-83
2021/09/09 10:31:24;;;;;;;13.90;6.53;;;;;;;21.66;51.43;98184.90;1707469;84;20149;-80
2021/09/09 10:33:53;;;;;;;6.42;4.50;;;;;;;21.80;50.85;98180.75;1707292;84;20982;-80
2021/09/09 10:36:41;;;;;;;7.15;4.53;;;;;;;22.06;50.77;98181.16;1706935;84;21033;-80
2021/09/09 10:39:21;;;;;;;6.05;4.40;;;;;;;22.61;50.03;98180.70;1707261;84;21419;-81
2021/09/09 10:41:48;;;;;;;8.08;4.30;;;;;;;24.19;47.70;98171.47;1691040;84;20957;-80
2021/09/09 10:44:15;;;;;;;13.50;9.53;;;;;;;25.65;44.02;98169.03;1669801;84;21014;-80
2021/09/09 10:46:47;;;;;;;6.78;4.95;;;;;;;26.95;43.12;98159.52;1692058;84;21015;-80
2021/09/09 10:49:19;;;;;;;10.55;6.05;;;;;;;28.02;40.37;98153.81;1678608;85;21112;-81
2021/09/09 10:52:09;;;;;;;7.37;4.92;;;;;;;29.09;37.42;98150.38;1673901;85;20979;-80
2021/09/09 10:55:10;;;;;;;7.95;4.95;;;;;;;30.01;36.35;98150.80;1658148;85;21039;-80
2021/09/09 10:57:37;;;;;;;8.65;5.00;;;;;;;30.80;35.07;98149.08;1678835;85;21034;-80
2021/09/09 11:00:07;;;;;;;7.60;5.17;;;;;;;31.59;33.17;98142.09;1678690;85;21437;-81
2021/09/09 11:02:35;;;;;;;10.93;5.30;;;;;;;32.08;30.07;98129.70;1678826;85;21055;-81
2021/09/09 11:05:05;;;;;;;10.28;5.55;;;;;;;32.61;27.84;98131.76;1672633;85;21051;-80
2021/09/09 11:07:32;;;;;;;7.15;4.90;;;;;;;33.24;29.57;98127.41;1678855;85;21489;-80
2021/09/09 11:10:09;;;;;;;7.83;4.78;;;;;;;33.89;29.47;98128.70;1671267;84;21364;-81
2021/09/09 11:12:40;;;;;;;7.70;4.47;;;;;;;34.33;27.27;98122.24;1676120;85;21035;-81
2021/09/09 11:15:11;;;;;;;7.97;4.80;;;;;;;34.80;26.78;98114.11;1675848;85;21027;-80
2021/09/09 11:17:40;;;;;;;4.90;3.77;;;;;;;35.21;27.42;98112.53;1672848;85;21003;-81
2021/09/09 11:20:11;;;;;;;6.37;3.70;;;;;;;35.71;25.43;98113.78;1665847;85;21066;-81
2021/09/09 11:22:39;;;;;;;4.65;4.08;;;;;;;35.71;23.52;98108.79;1661628;85;21041;-81
2021/09/09 11:25:18;;;;;;;5.15;4.25;;;;;;;35.74;22.62;98097.36;1658868;85;21038;-80
2021/09/09 11:27:45;;;;;;;6.92;4.30;;;;;;;35.08;21.53;98105.01;1657124;85;21067;-79
2021/09/09 11:30:16;;;;;;;7.03;4.22;;;;;;;35.13;23.58;98101.98;1662643;86;21026;-79
2021/09/09 11:33:04;;;;;;;5.62;4.90;;;;;;;35.24;23.65;98094.23;1664343;85;21007;-80
2021/09/09 11:35:30;;;;;;;6.58;5.12;;;;;;;35.31;21.75;98100.62;1656327;85;20995;-79